Time;durP1;ratioP1;P1;durP2;ratioP2;P2;SDS_P1;SDS_P2;PMS_P1;PMS_P2;Temp;Humidity;BMP_temperature;BMP_pressure;BME280_temperature;BME280_humidity;BME280_pressure;Samples;Min_cycle;Max_cycle;Signal;HPM_P1;HPM_P2
2022/01/24 00:00:58;;;;;;;1.03;1.03;;;2.30;99.90;;;;;;5100249;28;20703;-65
2022/01/24 00:03:25;;;;;;;1.13;1.13;;;2.30;99.90;;;;;;5100551;28;20233;-65
2022/01/24 00:05:52;;;;;;;1.00;1.00;;;2.30;99.90;;;;;;5101775;28;20840;-66
2022/01/24 00:08:20;;;;;;;1.10;1.10;;;2.40;99.90;;;;;;5092339;28;20230;-64
2022/01/24 00:10:48;;;;;;;1.00;1.00;;;2.40;99.90;;;;;;5098053;28;20205;-65
2022/01/24 00:14:04;;;;;;;1.20;1.20;;;2.50;99.90;;;;;;5108897;28;20225;-65
2022/01/24 00:16:27;;;;;;;0.90;0.90;;;2.50;99.90;;;;;;5099628;28;20222;-64
2022/01/24 00:27:08;;;;;;;1.20;1.20;;;2.40;99.90;;;;;;5089119;28;20218;-65
2022/01/24 00:29:35;;;;;;;1.30;1.30;;;2.20;99.90;;;;;;5083317;28;20321;-64
2022/01/24 00:32:04;;;;;;;1.20;1.20;;;2.20;99.90;;;;;;5099943;28;20309;-66
2022/01/24 00:34:32;;;;;;;1.20;1.20;;;2.10;99.90;;;;;;5104487;28;20230;-66
2022/01/24 00:36:59;;;;;;;1.10;1.10;;;2.10;99.90;;;;;;5103621;28;20232;-66
2022/01/24 00:39:26;;;;;;;1.10;1.10;;;2.10;99.90;;;;;;5098431;28;20206;-64
2022/01/24 00:42:05;;;;;;;1.00;1.00;;;2.00;99.90;;;;;;5094545;28;20361;-63
2022/01/24 00:45:03;;;;;;;1.30;1.30;;;2.00;99.90;;;;;;5103894;28;20190;-65
2022/01/24 00:47:47;;;;;;;1.33;1.33;;;2.00;99.90;;;;;;5104557;28;20804;-65
2022/01/24 00:53:16;;;;;;;1.20;1.20;;;1.80;99.90;;;;;;5079438;28;20596;-66
2022/01/24 00:55:45;;;;;;;1.60;1.50;;;1.80;99.90;;;;;;5073677;28;20645;-65
2022/01/24 00:58:11;;;;;;;1.17;1.17;;;1.80;99.90;;;;;;5089823;28;20203;-65
2022/01/24 01:00:38;;;;;;;1.20;1.20;;;1.80;99.90;;;;;;5090315;28;20337;-64
2022/01/24 01:03:07;;;;;;;1.30;1.30;;;1.80;99.90;;;;;;5091068;28;20258;-65
2022/01/24 01:05:51;;;;;;;1.23;1.23;;;1.90;99.90;;;;;;5090130;28;20635;-63
2022/01/24 01:19:32;;;;;;;1.20;1.20;;;1.80;99.90;;;;;;5033350;28;20203;-65
2022/01/24 01:21:59;;;;;;;1.20;1.20;;;1.70;99.90;;;;;;5070109;28;20293;-64
2022/01/24 01:24:28;;;;;;;1.13;1.13;;;1.60;99.90;;;;;;5100311;28;20637;-64
2022/01/24 01:27:01;;;;;;;1.20;1.20;;;1.60;99.90;;;;;;5104238;28;20206;-65
2022/01/24 01:29:32;;;;;;;1.30;1.30;;;1.60;99.90;;;;;;5101073;28;20203;-64
2022/01/24 01:32:09;;;;;;;1.27;1.27;;;1.70;99.90;;;;;;5102007;28;20198;-66
2022/01/24 01:35:03;;;;;;;1.30;1.30;;;1.70;99.90;;;;;;5100637;28;20221;-65
2022/01/24 01:52:17;;;;;;;1.17;1.17;;;1.50;99.90;;;;;;5044563;28;20670;-64
2022/01/24 01:54:49;;;;;;;1.20;1.20;;;1.30;99.90;;;;;;5028544;28;20223;-61
2022/01/24 01:57:20;;;;;;;1.27;1.27;;;1.30;99.90;;;;;;5027721;28;20192;-61
2022/01/24 01:59:47;;;;;;;1.20;1.20;;;1.30;99.90;;;;;;5029365;28;20201;-61
2022/01/24 02:02:15;;;;;;;1.47;1.40;;;1.20;99.90;;;;;;5026992;28;20295;-61
2022/01/24 02:04:43;;;;;;;1.20;1.20;;;1.30;99.90;;;;;;5029447;28;20311;-61
2022/01/24 02:07:14;;;;;;;1.38;1.38;;;1.30;99.90;;;;;;5029402;28;20200;-61
2022/01/24 02:09:45;;;;;;;1.10;1.10;;;1.40;99.90;;;;;;5029583;28;20754;-61
2022/01/24 02:12:13;;;;;;;1.10;1.10;;;1.40;99.90;;;;;;5029401;28;20205;-62
2022/01/24 02:14:41;;;;;;;1.20;1.20;;;1.30;99.90;;;;;;5029180;28;20228;-62
2022/01/24 02:17:15;;;;;;;1.20;1.20;;;1.20;99.90;;;;;;5029562;28;20205;-60
2022/01/24 02:20:03;;;;;;;1.13;1.13;;;1.20;99.90;;;;;;5029954;28;20254;-62
2022/01/24 02:22:45;;;;;;;1.20;1.20;;;1.20;99.90;;;;;;5033136;28;20211;-61
2022/01/24 02:25:24;;;;;;;1.30;1.30;;;1.20;99.90;;;;;;5033326;28;20223;-61
2022/01/24 02:27:57;;;;;;;1.27;1.27;;;1.20;99.90;;;;;;5033430;28;20200;-62
2022/01/24 02:30:42;;;;;;;1.10;1.10;;;1.20;99.90;;;;;;5033131;28;20291;-61
2022/01/24 02:33:10;;;;;;;1.20;1.20;;;1.10;99.90;;;;;;5032592;28;20200;-63
2022/01/24 02:35:37;;;;;;;1.23;1.23;;;1.10;99.90;;;;;;5032680;28;20225;-61
2022/01/24 02:38:13;;;;;;;1.10;1.10;;;1.00;99.90;;;;;;5029495;28;20200;-61
2022/01/24 02:40:40;;;;;;;1.10;1.10;;;1.00;99.90;;;;;;5036330;28;20200;-61
2022/01/24 02:48:23;;;;;;;1.30;1.30;;;1.00;99.90;;;;;;5032535;28;20235;-61
2022/01/24 02:48:52;;;;;;;1.53;1.43;;;1.00;99.90;;;;;;5034379;28;20208;-61
2022/01/24 02:51:37;;;;;;;1.40;1.30;;;1.00;99.90;;;;;;5037565;28;20197;-62
2022/01/24 02:54:06;;;;;;;1.40;1.40;;;1.00;99.90;;;;;;5035205;28;20208;-62
2022/01/24 02:56:33;;;;;;;1.20;1.20;;;1.10;99.90;;;;;;5033423;28;20197;-62
2022/01/24 02:58:59;;;;;;;1.30;1.30;;;1.10;99.90;;;;;;5034580;28;20300;-62
2022/01/24 03:01:26;;;;;;;1.20;1.20;;;1.10;99.90;;;;;;5033953;28;20292;-62
2022/01/24 03:03:53;;;;;;;1.17;1.17;;;1.10;99.90;;;;;;5041755;28;20220;-61
2022/01/24 03:06:20;;;;;;;1.00;1.00;;;1.10;99.90;;;;;;5055373;28;20248;-60
2022/01/24 03:08:48;;;;;;;1.30;1.30;;;1.10;99.90;;;;;;5054176;28;20201;-61
2022/01/24 03:11:17;;;;;;;1.27;1.23;;;1.10;99.90;;;;;;5050298;28;20223;-62
2022/01/24 03:13:43;;;;;;;1.20;1.20;;;1.10;99.90;;;;;;5034389;28;20236;-61
2022/01/24 03:16:10;;;;;;;1.10;1.10;;;1.10;99.90;;;;;;5036091;28;20319;-61
2022/01/24 03:18:37;;;;;;;1.20;1.20;;;1.00;99.90;;;;;;5031896;28;20288;-60
2022/01/24 03:21:04;;;;;;;1.40;1.40;;;0.90;99.90;;;;;;5029508;28;20715;-62
2022/01/24 03:23:31;;;;;;;1.30;1.30;;;0.90;99.90;;;;;;5032158;28;20211;-62
2022/01/24 03:25:58;;;;;;;1.20;1.20;;;0.90;99.90;;;;;;5031355;28;20217;-62
2022/01/24 03:28:27;;;;;;;1.20;1.20;;;0.90;99.90;;;;;;5033010;28;20206;-61
2022/01/24 03:30:53;;;;;;;1.23;1.23;;;0.90;99.90;;;;;;5032381;28;20280;-62
2022/01/24 03:33:20;;;;;;;1.20;1.20;;;0.90;99.90;;;;;;5033427;28;20213;-60
2022/01/24 03:35:47;;;;;;;1.27;1.27;;;1.00;99.90;;;;;;5030804;28;20661;-60
2022/01/24 03:38:15;;;;;;;1.23;1.23;;;1.00;99.90;;;;;;5035048;28;20205;-60
2022/01/24 03:40:42;;;;;;;1.33;1.33;;;1.00;99.90;;;;;;5035628;28;20239;-60
2022/01/24 03:43:10;;;;;;;1.40;1.33;;;1.00;99.90;;;;;;5033231;28;20649;-60
2022/01/24 03:45:42;;;;;;;1.20;1.20;;;1.00;99.90;;;;;;5035076;28;20312;-61
2022/01/24 03:48:12;;;;;;;1.20;1.20;;;1.00;99.90;;;;;;5032552;28;20653;-60
2022/01/24 03:50:40;;;;;;;1.20;1.20;;;1.00;99.90;;;;;;5036189;28;20205;-60
2022/01/24 03:53:06;;;;;;;1.20;1.20;;;0.90;99.90;;;;;;5033518;28;20240;-61
2022/01/24 03:55:34;;;;;;;1.20;1.20;;;1.00;99.90;;;;;;5031725;28;20678;-60
2022/01/24 03:58:01;;;;;;;1.13;1.13;;;0.90;99.90;;;;;;5031819;28;20236;-62
2022/01/24 04:00:28;;;;;;;1.10;1.10;;;0.90;99.90;;;;;;5031960;28;20878;-61
2022/01/24 04:02:57;;;;;;;1.27;1.27;;;0.90;99.90;;;;;;5032423;28;20262;-61
2022/01/24 04:05:24;;;;;;;1.10;1.10;;;0.90;99.90;;;;;;5033015;28;20275;-60
2022/01/24 04:07:50;;;;;;;1.10;1.10;;;0.80;99.90;;;;;;5032969;28;20267;-62
2022/01/24 04:10:20;;;;;;;1.30;1.30;;;0.90;99.90;;;;;;5033232;28;20208;-61
2022/01/24 04:12:49;;;;;;;1.40;1.40;;;0.80;99.90;;;;;;5032827;28;20287;-61
2022/01/24 04:15:44;;;;;;;1.30;1.30;;;0.90;99.90;;;;;;5033515;28;20228;-61
2022/01/24 04:18:31;;;;;;;1.13;1.13;;;0.90;99.90;;;;;;5033830;28;20184;-61
2022/01/24 04:23:46;;;;;;;1.20;1.20;;;0.90;99.90;;;;;;5036032;28;20249;-60
2022/01/24 04:26:13;;;;;;;1.33;1.33;;;1.00;99.90;;;;;;5035350;28;20250;-60
2022/01/24 04:28:40;;;;;;;1.23;1.23;;;1.00;99.90;;;;;;5036268;28;20667;-61
2022/01/24 04:31:07;;;;;;;1.43;1.43;;;1.00;99.90;;;;;;5036922;28;20251;-61
2022/01/24 04:33:36;;;;;;;1.27;1.27;;;0.90;99.90;;;;;;5041647;28;20208;-61
2022/01/24 04:36:03;;;;;;;1.20;1.20;;;0.90;99.90;;;;;;5041452;28;20260;-61
2022/01/24 04:38:30;;;;;;;1.30;1.30;;;0.90;99.90;;;;;;5040883;28;20209;-61
2022/01/24 04:41:00;;;;;;;1.03;1.03;;;0.80;99.90;;;;;;5041176;28;20228;-61
2022/01/24 04:43:36;;;;;;;1.10;1.10;;;0.80;99.90;;;;;;5035086;28;20343;-61
2022/01/24 04:46:14;;;;;;;1.20;1.20;;;0.80;99.90;;;;;;5035053;28;20227;-61
2022/01/24 04:51:40;;;;;;;1.30;1.30;;;0.70;99.90;;;;;;5036593;28;20188;-62
2022/01/24 04:54:38;;;;;;;1.60;1.50;;;0.70;99.90;;;;;;5040457;28;20227;-61
2022/01/24 04:57:07;;;;;;;1.40;1.30;;;0.70;99.90;;;;;;5035540;28;20323;-60
2022/01/24 04:59:34;;;;;;;1.37;1.37;;;0.60;99.90;;;;;;5033991;28;20208;-62
2022/01/24 05:02:01;;;;;;;1.40;1.40;;;0.60;99.90;;;;;;5035348;28;20325;-62
2022/01/24 05:04:30;;;;;;;1.30;1.30;;;0.60;99.90;;;;;;5035388;28;20254;-60
2022/01/24 05:06:57;;;;;;;1.40;1.40;;;0.60;99.90;;;;;;5036094;28;20287;-61
2022/01/24 05:09:24;;;;;;;1.40;1.40;;;0.70;99.90;;;;;;5033817;28;20307;-61
2022/01/24 05:11:56;;;;;;;1.30;1.30;;;0.70;99.90;;;;;;5033554;28;20212;-62
2022/01/24 05:25:21;;;;;;;1.30;1.30;;;0.80;99.90;;;;;;5001147;28;20220;-61
2022/01/24 05:27:48;;;;;;;1.30;1.30;;;0.80;99.90;;;;;;5031906;28;20236;-62
2022/01/24 05:30:16;;;;;;;1.30;1.30;;;0.80;99.90;;;;;;5032278;28;20204;-62
2022/01/24 05:32:44;;;;;;;1.30;1.30;;;0.90;99.90;;;;;;5032472;28;20295;-61
2022/01/24 05:35:13;;;;;;;1.27;1.27;;;0.80;99.90;;;;;;5032164;28;20239;-62
2022/01/24 05:37:40;;;;;;;1.20;1.20;;;0.80;99.90;;;;;;5032518;28;20235;-62
2022/01/24 05:40:08;;;;;;;1.60;1.50;;;0.80;99.90;;;;;;5032382;28;20243;-62
2022/01/24 05:42:35;;;;;;;1.50;1.50;;;0.80;99.90;;;;;;5031863;28;20299;-61
2022/01/24 05:45:03;;;;;;;1.40;1.40;;;0.80;99.90;;;;;;5031479;28;20256;-61
2022/01/24 05:47:30;;;;;;;1.30;1.30;;;0.90;99.90;;;;;;5032152;28;20239;-61
2022/01/24 05:49:57;;;;;;;1.47;1.47;;;0.90;99.90;;;;;;5031747;28;20231;-60
2022/01/24 05:52:25;;;;;;;1.40;1.40;;;1.00;99.90;;;;;;5032056;28;20685;-61
2022/01/24 05:54:52;;;;;;;1.60;1.50;;;1.00;99.90;;;;;;5035554;28;20300;-62
2022/01/24 05:57:19;;;;;;;1.40;1.40;;;0.90;99.90;;;;;;5040098;28;20224;-60
2022/01/24 05:59:46;;;;;;;1.70;1.60;;;0.90;99.90;;;;;;5035839;28;20291;-62
2022/01/24 06:02:12;;;;;;;1.70;1.60;;;0.90;99.90;;;;;;5035716;28;20650;-62
2022/01/24 06:04:39;;;;;;;1.30;1.30;;;0.90;99.90;;;;;;5035370;28;20228;-61
2022/01/24 06:07:06;;;;;;;1.40;1.40;;;0.80;99.90;;;;;;5035475;28;20292;-60
2022/01/24 06:09:34;;;;;;;1.50;1.50;;;0.90;99.90;;;;;;5035432;28;20247;-61
2022/01/24 06:12:01;;;;;;;1.80;1.70;;;0.90;99.90;;;;;;5035841;28;20240;-60
2022/01/24 06:14:28;;;;;;;1.80;1.70;;;0.90;99.90;;;;;;5035790;28;20295;-60
2022/01/24 06:16:55;;;;;;;1.90;1.80;;;1.00;99.90;;;;;;5035704;28;20270;-60
2022/01/24 06:19:22;;;;;;;1.73;1.67;;;1.00;99.90;;;;;;5035496;28;20282;-62
2022/01/24 06:21:49;;;;;;;1.40;1.40;;;0.90;99.90;;;;;;5040228;28;20666;-62
2022/01/24 06:24:16;;;;;;;1.37;1.33;;;0.90;99.90;;;;;;5041188;28;20203;-61
2022/01/24 06:26:44;;;;;;;2.00;1.90;;;0.80;99.90;;;;;;5045379;28;20188;-62
2022/01/24 06:29:12;;;;;;;1.73;1.63;;;0.80;99.90;;;;;;5043397;28;20209;-62
2022/01/24 06:31:39;;;;;;;1.90;1.80;;;0.80;99.90;;;;;;5034440;28;20296;-61
2022/01/24 06:34:06;;;;;;;1.97;1.87;;;0.80;99.90;;;;;;5034678;28;20215;-62
2022/01/24 06:36:33;;;;;;;1.63;1.60;;;0.80;99.90;;;;;;5034473;28;20315;-62
2022/01/24 06:39:01;;;;;;;1.93;1.83;;;0.90;99.90;;;;;;5034966;28;20572;-61
2022/01/24 06:41:32;;;;;;;1.80;1.70;;;0.90;99.90;;;;;;5034787;28;20211;-62
2022/01/24 06:44:01;;;;;;;1.80;1.70;;;0.90;99.90;;;;;;5036987;28;20196;-61
2022/01/24 06:46:28;;;;;;;1.87;1.70;;;0.90;99.90;;;;;;5034196;28;20283;-61
2022/01/24 06:48:55;;;;;;;2.00;1.90;;;0.90;99.90;;;;;;5034929;28;20200;-61
2022/01/24 06:51:23;;;;;;;1.90;1.80;;;0.90;99.90;;;;;;5034355;28;20299;-61
2022/01/24 06:53:51;;;;;;;1.97;1.87;;;0.90;99.90;;;;;;5034810;28;20243;-62
2022/01/24 06:56:18;;;;;;;2.10;2.00;;;0.90;99.90;;;;;;5034302;28;20715;-62
2022/01/24 06:58:45;;;;;;;1.70;1.60;;;0.90;99.90;;;;;;5034869;28;20205;-61
2022/01/24 07:01:13;;;;;;;2.00;1.90;;;0.90;99.90;;;;;;5040975;28;20236;-62
2022/01/24 07:03:40;;;;;;;1.80;1.70;;;0.90;99.90;;;;;;5035735;28;20686;-62
2022/01/24 07:06:07;;;;;;;1.90;1.80;;;1.00;99.90;;;;;;5039052;28;20259;-61
2022/01/24 07:08:34;;;;;;;1.80;1.70;;;1.00;99.90;;;;;;5039707;28;20630;-61
2022/01/24 07:11:01;;;;;;;1.90;1.80;;;1.10;99.90;;;;;;5038503;28;20229;-61
2022/01/24 07:13:28;;;;;;;1.80;1.70;;;1.10;99.90;;;;;;5039783;28;20781;-62
2022/01/24 07:16:00;;;;;;;1.90;1.80;;;1.10;99.90;;;;;;5040449;28;20255;-61
2022/01/24 07:21:12;;;;;;;1.80;1.70;;;1.10;99.90;;;;;;5036945;28;20207;-61
2022/01/24 07:23:40;;;;;;;2.00;1.90;;;1.20;99.90;;;;;;5039491;28;20235;-61
2022/01/24 07:26:07;;;;;;;2.00;1.90;;;1.20;99.90;;;;;;5034735;28;20220;-61
2022/01/24 07:28:34;;;;;;;2.17;2.03;;;1.10;99.90;;;;;;5035560;28;20228;-61
2022/01/24 07:31:01;;;;;;;2.00;1.90;;;1.10;99.90;;;;;;5036164;28;20208;-62
2022/01/24 07:33:29;;;;;;;2.10;2.00;;;1.10;99.90;;;;;;5036435;28;20295;-61
2022/01/24 07:35:56;;;;;;;2.20;2.10;;;1.20;99.90;;;;;;5034761;28;20260;-62
2022/01/24 07:38:23;;;;;;;2.20;2.10;;;1.20;99.90;;;;;;5034792;28;20204;-61
2022/01/24 07:40:53;;;;;;;1.87;1.77;;;1.30;99.90;;;;;;5035264;28;20236;-61
2022/01/24 07:43:20;;;;;;;2.30;2.20;;;1.30;99.90;;;;;;5034834;28;20196;-61
2022/01/24 07:45:48;;;;;;;2.17;2.07;;;1.30;99.90;;;;;;5034273;28;20259;-61
2022/01/24 07:48:17;;;;;;;2.20;2.10;;;1.30;99.90;;;;;;5034217;28;20208;-61
2022/01/24 07:50:46;;;;;;;1.90;1.80;;;1.40;99.90;;;;;;5034192;28;20208;-61
2022/01/24 07:53:15;;;;;;;2.00;1.90;;;1.40;99.90;;;;;;5033800;28;20209;-62
2022/01/24 07:55:42;;;;;;;2.20;2.10;;;1.40;99.90;;;;;;5033412;28;20224;-62
2022/01/24 07:58:09;;;;;;;2.10;2.00;;;1.40;99.90;;;;;;5033460;28;20295;-64
2022/01/24 08:00:37;;;;;;;2.20;2.10;;;1.50;99.90;;;;;;5033932;28;20577;-61
2022/01/24 08:03:05;;;;;;;2.20;2.10;;;1.60;99.90;;;;;;5033644;28;20272;-61
2022/01/24 08:05:32;;;;;;;2.27;2.17;;;1.60;99.90;;;;;;5032885;28;20311;-62
2022/01/24 08:08:01;;;;;;;2.60;2.50;;;1.60;99.90;;;;;;5032992;28;20291;-62
2022/01/24 08:10:28;;;;;;;2.07;1.97;;;1.70;99.90;;;;;;5033120;28;20200;-61
2022/01/24 08:12:54;;;;;;;2.00;1.90;;;1.80;99.90;;;;;;5033574;28;20581;-61
2022/01/24 08:15:23;;;;;;;2.00;1.90;;;1.90;99.90;;;;;;5032943;28;20232;-61
2022/01/24 08:17:51;;;;;;;2.17;2.07;;;1.90;99.90;;;;;;5038608;28;20224;-62
2022/01/24 08:20:18;;;;;;;2.30;2.20;;;2.10;99.90;;;;;;5048346;28;20580;-61
2022/01/24 08:22:45;;;;;;;1.90;1.80;;;2.20;99.90;;;;;;5049875;28;20264;-62
2022/01/24 08:25:14;;;;;;;1.90;1.80;;;2.30;99.90;;;;;;5048683;28;20228;-61
2022/01/24 08:27:41;;;;;;;2.20;2.00;;;2.40;99.90;;;;;;5035958;28;20204;-61
2022/01/24 08:30:12;;;;;;;2.10;2.00;;;2.50;99.90;;;;;;5032946;28;20295;-61
2022/01/24 08:32:39;;;;;;;1.90;1.80;;;2.60;99.90;;;;;;5032983;28;20610;-61
2022/01/24 08:35:08;;;;;;;2.00;1.90;;;2.70;99.90;;;;;;5033758;28;20227;-61
2022/01/24 08:37:36;;;;;;;1.80;1.70;;;2.80;99.90;;;;;;5042264;28;20362;-62
2022/01/24 08:40:03;;;;;;;1.77;1.67;;;2.90;99.90;;;;;;5043728;28;20228;-61
2022/01/24 08:42:36;;;;;;;1.90;1.80;;;3.10;99.90;;;;;;5043023;28;20291;-62
2022/01/24 08:47:48;;;;;;;1.70;1.60;;;3.30;99.90;;;;;;5043026;28;20184;-62
2022/01/24 08:50:15;;;;;;;2.03;1.93;;;3.40;99.90;;;;;;5044996;28;20200;-62
2022/01/24 08:52:42;;;;;;;2.00;1.90;;;3.50;99.90;;;;;;5047299;28;20331;-61
2022/01/24 08:55:10;;;;;;;1.90;1.80;;;3.60;99.90;;;;;;5035156;28;20270;-61
2022/01/24 08:57:40;;;;;;;1.90;1.80;;;3.80;99.90;;;;;;5032881;28;20221;-61
2022/01/24 09:00:08;;;;;;;1.93;1.83;;;3.90;99.90;;;;;;5032896;28;20197;-62
2022/01/24 09:02:35;;;;;;;1.80;1.70;;;4.10;99.90;;;;;;5033010;28;20212;-61
2022/01/24 09:05:02;;;;;;;1.70;1.60;;;4.20;99.90;;;;;;5032208;28;20319;-60
2022/01/24 09:07:30;;;;;;;1.90;1.80;;;4.30;99.90;;;;;;5031854;28;20200;-62
2022/01/24 09:09:57;;;;;;;1.90;1.80;;;4.40;99.90;;;;;;5032738;28;20821;-62
2022/01/24 09:12:24;;;;;;;2.43;2.33;;;4.40;99.90;;;;;;5032291;28;20215;-61
2022/01/24 09:14:53;;;;;;;2.10;2.00;;;4.30;99.90;;;;;;5032380;28;20221;-65
2022/01/24 09:17:20;;;;;;;2.20;2.10;;;4.20;99.90;;;;;;5031943;28;20315;-61
2022/01/24 09:19:46;;;;;;;2.57;2.47;;;4.20;99.90;;;;;;5032217;28;20287;-62
2022/01/24 09:22:13;;;;;;;2.20;2.00;;;4.10;99.90;;;;;;5034139;28;20219;-62
2022/01/24 09:24:40;;;;;;;2.10;2.00;;;4.00;99.90;;;;;;5031855;28;20335;-61
2022/01/24 09:27:07;;;;;;;2.13;2.03;;;4.10;99.90;;;;;;5033770;28;20243;-60
2022/01/24 09:29:34;;;;;;;2.40;2.30;;;4.10;99.90;;;;;;5032796;28;20299;-61
2022/01/24 09:32:03;;;;;;;2.20;2.10;;;3.90;99.90;;;;;;5031877;28;20205;-62
2022/01/24 09:34:30;;;;;;;2.10;2.00;;;3.70;99.90;;;;;;5031686;28;20321;-60
2022/01/24 09:36:57;;;;;;;2.10;2.00;;;3.70;99.90;;;;;;5031736;28;20332;-62
2022/01/24 09:39:24;;;;;;;2.30;2.20;;;3.90;99.90;;;;;;5032339;28;20236;-62
2022/01/24 09:41:52;;;;;;;2.07;1.97;;;3.90;99.90;;;;;;5031558;28;20205;-61
2022/01/24 09:44:19;;;;;;;2.00;1.90;;;4.10;99.90;;;;;;5031933;28;20243;-62
2022/01/24 09:46:46;;;;;;;2.10;2.00;;;4.10;99.90;;;;;;5034242;28;20239;-61
2022/01/24 09:49:15;;;;;;;2.43;1.93;;;4.00;99.90;;;;;;5031897;28;20292;-62
2022/01/24 09:51:44;;;;;;;1.87;1.77;;;4.20;99.90;;;;;;5031682;28;20576;-61
2022/01/24 09:54:12;;;;;;;2.07;1.97;;;4.30;99.90;;;;;;5031310;28;20208;-62
2022/01/24 09:56:39;;;;;;;2.00;1.90;;;4.70;99.90;;;;;;5031134;28;20797;-62
2022/01/24 09:59:07;;;;;;;2.00;1.90;;;4.70;99.90;;;;;;5031898;28;20296;-62
2022/01/24 10:01:35;;;;;;;2.10;2.00;;;4.70;99.90;;;;;;5031657;28;20236;-62
2022/01/24 10:04:12;;;;;;;2.07;1.97;;;4.80;99.90;;;;;;5031617;28;20296;-61
2022/01/24 10:07:15;;;;;;;1.90;1.80;;;4.90;99.90;;;;;;5031679;28;20553;-61
2022/01/24 10:09:44;;;;;;;1.80;1.70;;;4.90;99.90;;;;;;4951314;29;20309;-62
2022/01/24 10:12:21;;;;;;;1.90;1.80;;;4.90;99.90;;;;;;4951347;29;20737;-63
2022/01/24 10:17:44;;;;;;;1.80;1.70;;;5.10;99.90;;;;;;4917945;29;20745;-62
2022/01/24 10:20:20;;;;;;;2.00;1.90;;;5.20;99.90;;;;;;4950964;29;20227;-61
2022/01/24 10:23:04;;;;;;;1.80;1.70;;;5.20;99.90;;;;;;4951367;29;20367;-63
2022/01/24 10:25:32;;;;;;;2.00;1.90;;;5.10;99.90;;;;;;4950668;29;20299;-62
2022/01/24 10:28:03;;;;;;;2.30;2.10;;;5.00;99.90;;;;;;4950848;29;20219;-62
2022/01/24 10:30:30;;;;;;;1.90;1.80;;;5.10;99.90;;;;;;4948979;29;20243;-61
2022/01/24 10:32:57;;;;;;;2.00;1.90;;;5.10;99.90;;;;;;4950617;29;20226;-61
2022/01/24 10:35:35;;;;;;;2.00;1.90;;;5.20;99.90;;;;;;4950396;29;20226;-61
2022/01/24 10:38:27;;;;;;;2.20;2.10;;;5.20;99.90;;;;;;4950510;29;20215;-61
2022/01/24 10:41:09;;;;;;;2.00;1.90;;;5.30;99.90;;;;;;5002610;28;20704;-62
2022/01/24 10:43:38;;;;;;;2.23;2.13;;;5.30;99.90;;;;;;5036664;28;20275;-62
2022/01/24 10:46:05;;;;;;;2.20;2.10;;;5.50;99.90;;;;;;5045954;28;20311;-62
2022/01/24 10:48:34;;;;;;;2.10;2.00;;;5.60;99.90;;;;;;5040305;28;20201;-61
2022/01/24 10:51:13;;;;;;;2.10;2.00;;;5.60;99.90;;;;;;5032867;28;20196;-63
2022/01/24 10:53:45;;;;;;;2.17;2.07;;;5.60;99.90;;;;;;5041364;28;20234;-65
2022/01/24 10:56:32;;;;;;;2.03;1.93;;;5.60;99.90;;;;;;5033150;28;20230;-62
2022/01/24 10:59:13;;;;;;;2.30;2.20;;;5.60;99.90;;;;;;5033405;28;20240;-62
2022/01/24 11:01:40;;;;;;;2.30;2.20;;;5.60;99.90;;;;;;5033415;28;20238;-61
2022/01/24 11:04:09;;;;;;;2.20;2.10;;;5.50;99.90;;;;;;5034421;28;20715;-62
2022/01/24 11:06:39;;;;;;;2.13;2.03;;;5.50;99.90;;;;;;5033322;28;20225;-62
2022/01/24 11:09:22;;;;;;;2.27;2.17;;;5.60;99.90;;;;;;5031578;28;20686;-62
2022/01/24 11:11:51;;;;;;;2.20;2.10;;;5.70;99.90;;;;;;5029561;28;20207;-61
2022/01/24 11:14:20;;;;;;;2.10;2.00;;;5.70;99.90;;;;;;5030882;28;20678;-61
2022/01/24 11:16:48;;;;;;;2.13;2.03;;;5.70;99.90;;;;;;5030888;28;20197;-61
2022/01/24 11:19:22;;;;;;;2.20;2.10;;;5.80;99.90;;;;;;5042507;28;20200;-61
2022/01/24 11:21:51;;;;;;;2.20;2.10;;;5.90;99.90;;;;;;5035305;28;20211;-62
2022/01/24 11:24:25;;;;;;;1.93;1.83;;;5.80;99.90;;;;;;5045127;28;20264;-62
2022/01/24 11:26:52;;;;;;;2.23;2.13;;;5.80;99.90;;;;;;5029789;28;20209;-62
2022/01/24 11:29:20;;;;;;;1.90;1.80;;;5.90;99.90;;;;;;5030928;28;20197;-61
2022/01/24 11:31:55;;;;;;;1.90;1.80;;;5.80;99.90;;;;;;5030577;28;20951;-62
2022/01/24 11:34:32;;;;;;;2.10;2.00;;;5.90;99.90;;;;;;5032502;28;20280;-61
2022/01/24 11:36:59;;;;;;;2.20;2.10;;;6.00;99.90;;;;;;5030320;28;20195;-62
2022/01/24 11:39:28;;;;;;;1.90;1.80;;;6.00;99.90;;;;;;5046299;28;20328;-61
2022/01/24 11:41:55;;;;;;;1.60;1.60;;;6.10;99.90;;;;;;5041962;28;20203;-61
2022/01/24 11:44:23;;;;;;;2.00;1.90;;;6.10;99.90;;;;;;5048381;28;20299;-61
2022/01/24 11:46:55;;;;;;;1.60;1.60;;;6.20;99.90;;;;;;5040330;28;20211;-62
2022/01/24 11:49:29;;;;;;;1.90;1.80;;;6.30;99.90;;;;;;5030870;28;20201;-62
2022/01/24 11:52:05;;;;;;;1.90;1.80;;;6.30;99.90;;;;;;5030552;28;20935;-62
2022/01/24 11:54:45;;;;;;;1.77;1.70;;;6.20;99.90;;;;;;5029451;28;20598;-62
2022/01/24 11:57:22;;;;;;;2.10;2.00;;;6.30;99.90;;;;;;5044096;28;20592;-61
2022/01/24 11:59:52;;;;;;;2.10;2.00;;;6.30;99.90;;;;;;5059349;28;20192;-61
2022/01/24 12:02:23;;;;;;;2.30;2.20;;;6.10;99.90;;;;;;5070928;28;20219;-62
2022/01/24 12:04:59;;;;;;;2.10;2.00;;;6.20;99.90;;;;;;5055315;28;20247;-62
2022/01/24 12:07:28;;;;;;;2.00;1.90;;;6.30;99.90;;;;;;5052747;28;20189;-61
2022/01/24 12:10:42;;;;;;;2.10;2.00;;;6.30;99.90;;;;;;5047624;28;20555;-64
2022/01/24 12:13:14;;;;;;;1.93;1.83;;;6.10;99.90;;;;;;5011169;28;20387;-61
2022/01/24 12:15:57;;;;;;;1.80;1.80;;;6.20;99.90;;;;;;5032858;28;20251;-62
2022/01/24 12:18:53;;;;;;;2.07;1.97;;;6.10;99.90;;;;;;5034884;28;20317;-63
2022/01/24 12:21:25;;;;;;;1.83;1.73;;;6.20;99.90;;;;;;5034352;28;20423;-62
2022/01/24 12:23:55;;;;;;;2.10;2.00;;;6.30;99.90;;;;;;5034325;28;20232;-62
2022/01/24 12:26:32;;;;;;;2.20;2.10;;;6.30;99.90;;;;;;5047141;28;20227;-62
2022/01/24 12:29:03;;;;;;;2.10;2.00;;;6.30;99.90;;;;;;5050030;28;20256;-62
2022/01/24 12:31:33;;;;;;;2.30;2.20;;;6.30;99.90;;;;;;5047922;28;20208;-60
2022/01/24 12:34:16;;;;;;;2.10;2.00;;;6.30;99.90;;;;;;5038972;28;20263;-62
2022/01/24 12:37:22;;;;;;;2.10;2.00;;;6.30;99.90;;;;;;5032520;28;20291;-62
2022/01/24 12:39:53;;;;;;;2.10;2.00;;;6.30;99.90;;;;;;5039593;28;20228;-62
2022/01/24 12:48:05;;;;;;;1.97;1.87;;;6.40;99.90;;;;;;5029721;28;20586;-61
2022/01/24 12:50:32;;;;;;;2.13;2.03;;;6.50;99.90;;;;;;5030097;28;20189;-62
2022/01/24 12:52:59;;;;;;;2.20;2.10;;;6.60;99.90;;;;;;5027262;28;20204;-62
2022/01/24 12:55:26;;;;;;;2.00;1.90;;;6.60;99.90;;;;;;5029347;28;20222;-62
2022/01/24 12:57:54;;;;;;;2.00;1.90;;;6.60;99.90;;;;;;5030877;28;20231;-62
2022/01/24 13:00:21;;;;;;;2.10;2.00;;;6.70;99.90;;;;;;5026729;28;20224;-62
2022/01/24 13:02:49;;;;;;;2.00;1.90;;;6.70;99.90;;;;;;5024720;28;20209;-62
2022/01/24 13:05:20;;;;;;;2.00;1.90;;;6.60;99.90;;;;;;5028520;28;20227;-61
2022/01/24 13:07:52;;;;;;;1.93;1.83;;;6.60;99.90;;;;;;5028756;28;20284;-62
2022/01/24 13:10:22;;;;;;;2.10;2.00;;;6.70;99.90;;;;;;5030420;28;20228;-62
2022/01/24 13:13:00;;;;;;;2.17;2.07;;;6.70;99.90;;;;;;5030523;28;20571;-61
2022/01/24 13:21:09;;;;;;;2.17;2.07;;;6.80;99.90;;;;;;5040435;28;20207;-61
2022/01/24 13:23:40;;;;;;;2.07;1.97;;;6.80;99.90;;;;;;5039769;28;20215;-61
2022/01/24 13:26:08;;;;;;;2.07;1.97;;;6.80;99.90;;;;;;5037655;28;20279;-61
2022/01/24 13:28:38;;;;;;;2.10;2.00;;;6.80;99.90;;;;;;5044590;28;20266;-61
2022/01/24 13:31:07;;;;;;;2.10;2.00;;;6.80;99.90;;;;;;5044409;28;20276;-60
2022/01/24 13:33:35;;;;;;;2.00;1.90;;;6.90;99.90;;;;;;5040566;28;20200;-60
2022/01/24 13:36:07;;;;;;;2.07;1.97;;;7.00;99.90;;;;;;5039672;28;20228;-61
2022/01/24 13:38:36;;;;;;;2.00;1.90;;;6.90;99.90;;;;;;5031860;28;20220;-61
2022/01/24 13:41:07;;;;;;;1.73;1.67;;;7.00;99.90;;;;;;5032175;28;20625;-62
2022/01/24 13:43:41;;;;;;;2.07;1.97;;;7.00;99.90;;;;;;5031839;28;20189;-63
2022/01/24 13:46:10;;;;;;;2.30;2.20;;;7.10;99.90;;;;;;5029135;28;20223;-61
2022/01/24 13:48:44;;;;;;;2.30;2.20;;;7.00;99.90;;;;;;5031327;28;20659;-62
2022/01/24 13:51:13;;;;;;;1.80;1.70;;;7.00;99.90;;;;;;5034038;28;20201;-61
2022/01/24 13:53:43;;;;;;;2.10;2.00;;;7.00;99.90;;;;;;5039470;28;20204;-62
2022/01/24 13:56:26;;;;;;;1.90;1.80;;;7.10;99.90;;;;;;5037367;28;20250;-62
2022/01/24 13:59:04;;;;;;;1.63;1.60;;;7.10;99.90;;;;;;5039440;28;20216;-61
2022/01/24 14:01:31;;;;;;;1.90;1.80;;;7.20;99.90;;;;;;5029719;28;20267;-61
2022/01/24 14:03:59;;;;;;;1.80;1.70;;;7.30;99.90;;;;;;5029296;28;20200;-61
2022/01/24 14:06:30;;;;;;;2.00;1.90;;;7.30;99.90;;;;;;5029490;28;20224;-61
2022/01/24 14:09:08;;;;;;;2.00;1.90;;;7.20;99.90;;;;;;5027542;28;20207;-61
2022/01/24 14:11:41;;;;;;;2.07;1.97;;;7.30;99.90;;;;;;5027788;28;20204;-62
2022/01/24 14:14:13;;;;;;;2.00;1.90;;;7.30;99.90;;;;;;5028189;28;20300;-61
2022/01/24 14:16:47;;;;;;;18.47;17.03;;;7.30;99.90;;;;;;5030196;28;20203;-62
2022/01/24 14:19:14;;;;;;;8.70;8.10;;;7.30;99.90;;;;;;5033058;28;20248;-61
2022/01/24 14:21:41;;;;;;;2.90;2.80;;;7.40;99.90;;;;;;5033902;28;20192;-61
2022/01/24 14:24:08;;;;;;;2.20;2.10;;;7.40;99.90;;;;;;5032320;28;20228;-60
2022/01/24 14:26:46;;;;;;;2.17;2.07;;;7.40;99.90;;;;;;5032935;28;20730;-62
2022/01/24 14:29:17;;;;;;;2.43;2.33;;;7.40;99.90;;;;;;5030152;28;20199;-62
2022/01/24 14:31:47;;;;;;;2.20;2.10;;;7.50;99.90;;;;;;5032949;28;20968;-61